To NAV CANADA Home Page Login to a new session Search on AWWS site Feedback and Comments Disclaimer Vers la page française équivalente Tips FAQ What's new on the site To the Forecasts and Observations / NOTAM section To "File a Flight Plan" website Publications and other links Update of the User's profile FIC Telephone Numbers My Weather Data Folder Route Weather Data Regional Weather Data Local Weather Data To the Forecasts and Observations / NOTAM section
Request Generated 05/26/2016 at 22:19:21 UTC . Weather information available at that time is displayed.

METAR/TAF

CALGARY/SPRINGBANK/AB    (show WxCam)

METAR CYBW 262200Z AUTO VRB02KT 9SM SCT090 SCT240 17/04 A2985 RMK
LTNG DIST SW SLP117 DENSITY ALT 5100FT=
METAR CYBW 262100Z AUTO 13012KT 110V180 9SM SCT110 18/06 A2986 RMK
LTNG DIST SE SLP118 DENSITY ALT 5200FT=
SPECI CYBW 262032Z AUTO 16007KT 150V230 9SM BKN075 BKN096 16/09 A2987
RMK LTNG DIST N SE NW SLP126 DENSITY ALT 4900FT=
SPECI CYBW 262020Z AUTO 18008KT 9SM VCTS FEW025 SCT080 OVC099 14/09
A2987 RMK LTNG DIST N SE NW SLP128 DENSITY ALT 4700FT=
SPECI CYBW 262015Z AUTO 16009KT 9SM -RA VCTS FEW029 SCT070 OVC098
13/08 A2987 RMK LTNG DIST SE NW SLP129 DENSITY ALT 4600FT=
METAR CYBW 262000Z AUTO 19011G17KT 9SM -RA FEW026 BKN050 BKN070
OVC110 12/08 A2988 RMK LTNG DIST W NW SLP135 DENSITY ALT 4500FT=

TAF AMD CYBW 261940Z 2619/2704 VRB03KT P6SM BKN050 TEMPO 2619/2620
22015G25KT P6SM -SHRA BKN030
FM262000 15008KT P6SM -SHRA BKN030 PROB40 2620/2704 VRB15G25KT
3SM TSRA BKN020CB
RMK FCST BASED ON AUTO OBS. NXT FCST BY 270000Z=
Your time UTC time
Weather data provided by Environment Canada and NAV CANADA